createdAt,value
2017-09-30T00:00:53.951Z,16.42
2017-09-30T00:01:53.944Z,16.53
2017-09-30T00:02:53.952Z,16.47
2017-09-30T00:03:53.957Z,16.38
2017-09-30T00:04:53.329Z,16.39
2017-09-30T00:05:53.633Z,16.46
2017-09-30T00:06:53.635Z,16.49
2017-09-30T00:07:53.956Z,16.43
2017-09-30T00:08:53.953Z,16.43
2017-09-30T00:09:53.634Z,16.46
2017-09-30T00:10:53.959Z,16.47
2017-09-30T00:11:53.956Z,16.58
2017-09-30T00:12:53.331Z,16.57
2017-09-30T00:13:53.961Z,16.53
2017-09-30T00:14:53.974Z,16.53
2017-09-30T00:15:53.631Z,16.65
2017-09-30T00:16:53.965Z,16.54
2017-09-30T00:17:53.947Z,16.61
2017-09-30T00:18:53.636Z,16.51
2017-09-30T00:19:53.949Z,16.6
2017-09-30T00:20:53.650Z,16.51
2017-09-30T00:21:53.948Z,16.5
2017-09-30T00:22:53.638Z,16.66
2017-09-30T00:23:53.633Z,16.5
2017-09-30T00:24:53.947Z,16.56
2017-09-30T00:25:53.336Z,16.54
2017-09-30T00:26:53.638Z,16.61
2017-09-30T00:27:53.948Z,16.53
2017-09-30T00:28:53.640Z,16.54
2017-09-30T00:29:53.952Z,16.54
2017-09-30T00:30:53.943Z,16.56
2017-09-30T00:31:53.642Z,16.5
2017-09-30T00:32:53.950Z,16.54
2017-09-30T00:33:53.647Z,16.47
2017-09-30T00:34:53.341Z,16.46
2017-09-30T00:35:53.342Z,16.41
2017-09-30T00:36:53.946Z,16.41
2017-09-30T00:37:53.949Z,16.42
2017-09-30T00:38:53.950Z,16.31
2017-09-30T00:39:53.647Z,16.32
2017-09-30T00:40:53.951Z,16.41
2017-09-30T00:41:53.969Z,16.35
2017-09-30T00:42:53.970Z,16.38
2017-09-30T00:43:53.950Z,16.31
2017-09-30T00:44:53.950Z,16.36
2017-09-30T00:45:53.949Z,16.33
2017-09-30T00:46:53.958Z,16.33
2017-09-30T00:47:53.956Z,16.32
2017-09-30T00:48:53.952Z,16.31
2017-09-30T00:49:53.338Z,16.36
2017-09-30T00:50:53.953Z,16.33
2017-09-30T00:51:53.955Z,16.39
2017-09-30T00:52:53.643Z,16.39
2017-09-30T00:53:53.338Z,16.38
2017-09-30T00:54:53.653Z,16.35
2017-09-30T00:55:53.335Z,16.43
2017-09-30T00:56:53.954Z,16.46
2017-09-30T00:57:53.649Z,16.47
2017-09-30T00:58:53.957Z,16.47
2017-09-30T00:59:53.643Z,16.49
2017-09-30T01:00:53.646Z,16.53
2017-09-30T01:01:53.665Z,16.53
2017-09-30T01:02:53.970Z,16.51
2017-09-30T01:03:53.957Z,16.51
2017-09-30T01:04:53.961Z,16.54
2017-09-30T01:05:53.653Z,16.61
2017-09-30T01:06:53.960Z,16.58
2017-09-30T01:07:53.962Z,16.6
2017-09-30T01:08:53.964Z,16.61
2017-09-30T01:09:53.656Z,16.61
2017-09-30T01:10:53.666Z,16.65
2017-09-30T01:11:53.646Z,16.56
2017-09-30T01:12:53.656Z,16.57
2017-09-30T01:13:53.655Z,16.66
2017-09-30T01:14:53.339Z,16.74
2017-09-30T01:15:53.958Z,16.71
2017-09-30T01:16:53.978Z,16.66
2017-09-30T01:17:53.386Z,16.72
2017-09-30T01:18:53.734Z,16.71
2017-09-30T01:19:54.132Z,16.71
2017-09-30T01:20:53.655Z,16.66
2017-09-30T01:21:53.960Z,16.68
2017-09-30T01:22:53.657Z,16.71
2017-09-30T01:23:53.709Z,16.61
2017-09-30T01:24:53.959Z,16.65
2017-09-30T01:25:53.656Z,16.58
2017-09-30T01:26:53.975Z,16.65
2017-09-30T01:27:53.652Z,16.51
2017-09-30T01:28:53.652Z,16.56
2017-09-30T01:29:53.660Z,16.49
2017-09-30T01:30:53.963Z,16.51
2017-09-30T01:31:53.654Z,16.54
2017-09-30T01:32:53.654Z,16.49
2017-09-30T01:33:53.651Z,16.47
2017-09-30T01:34:53.963Z,16.46
2017-09-30T01:35:53.344Z,16.54
2017-09-30T01:36:53.963Z,16.51
2017-09-30T01:37:53.961Z,16.53
2017-09-30T01:38:53.652Z,16.47
2017-09-30T01:39:53.649Z,16.5
2017-09-30T01:40:53.651Z,16.42
2017-09-30T01:41:53.656Z,16.5
2017-09-30T01:42:53.654Z,16.42
2017-09-30T01:43:53.653Z,16.41
2017-09-30T01:44:53.960Z,16.36
2017-09-30T01:45:54.169Z,16.43
2017-09-30T01:46:53.658Z,16.5
2017-09-30T01:47:53.651Z,16.41
2017-09-30T01:48:53.963Z,16.41
2017-09-30T01:49:53.654Z,16.47
2017-09-30T01:50:53.655Z,16.38
2017-09-30T01:51:53.656Z,16.43
2017-09-30T01:52:53.964Z,16.39
2017-09-30T01:53:53.655Z,16.38
2017-09-30T01:54:53.656Z,16.42
2017-09-30T01:55:53.654Z,16.42
2017-09-30T01:56:53.351Z,16.43
2017-09-30T01:57:53.965Z,16.33
2017-09-30T01:58:53.959Z,16.39
2017-09-30T01:59:53.350Z,16.43
2017-09-30T02:00:53.711Z,16.39
2017-09-30T02:01:53.707Z,16.47
2017-09-30T02:02:53.668Z,16.42
2017-09-30T02:03:53.668Z,16.42
2017-09-30T02:04:53.655Z,16.49
2017-09-30T02:05:53.657Z,16.43
2017-09-30T02:06:53.350Z,16.41
2017-09-30T02:07:53.347Z,16.36
2017-09-30T02:08:53.665Z,16.31
2017-09-30T02:09:53.968Z,16.33
2017-09-30T02:10:53.965Z,16.35
2017-09-30T02:11:53.671Z,16.33
2017-09-30T02:12:53.962Z,16.36
2017-09-30T02:13:53.655Z,16.33
2017-09-30T02:14:53.969Z,16.35
2017-09-30T02:15:55.876Z,16.35
2017-09-30T02:16:53.965Z,16.31
2017-09-30T02:17:53.352Z,16.35
2017-09-30T02:18:53.355Z,16.32
2017-09-30T02:19:53.657Z,16.38
2017-09-30T02:20:53.660Z,16.36
2017-09-30T02:21:53.659Z,16.33
2017-09-30T02:22:53.967Z,16.32
2017-09-30T02:23:53.664Z,16.38
2017-09-30T02:24:53.971Z,16.31
2017-09-30T02:25:53.356Z,16.33
2017-09-30T02:26:53.962Z,16.35
2017-09-30T02:27:53.964Z,16.36
2017-09-30T02:28:53.971Z,16.38
2017-09-30T02:29:53.964Z,16.33
2017-09-30T02:30:53.962Z,16.28
2017-09-30T02:31:53.959Z,16.32
2017-09-30T02:32:53.653Z,16.33
2017-09-30T02:33:54.008Z,16.31
2017-09-30T02:34:53.656Z,16.38
2017-09-30T02:35:53.961Z,16.32
2017-09-30T02:36:53.962Z,16.29
2017-09-30T02:37:53.656Z,16.26
2017-09-30T02:38:53.654Z,16.26
2017-09-30T02:39:53.961Z,16.35
2017-09-30T02:40:53.968Z,16.39
2017-09-30T02:41:53.346Z,16.32
2017-09-30T02:42:53.652Z,16.32
2017-09-30T02:43:53.655Z,16.32
2017-09-30T02:44:53.651Z,16.35
2017-09-30T02:45:56.304Z,16.31
2017-09-30T02:46:53.963Z,16.28
2017-09-30T02:47:53.342Z,16.32
2017-09-30T02:48:53.959Z,16.29
2017-09-30T02:49:53.651Z,16.38
2017-09-30T02:50:53.648Z,16.38
2017-09-30T02:51:53.954Z,16.33
2017-09-30T02:52:53.646Z,16.32
2017-09-30T02:53:53.654Z,16.33
2017-09-30T02:54:53.961Z,16.33
2017-09-30T02:55:53.964Z,16.36
2017-09-30T02:56:53.966Z,16.33
2017-09-30T02:57:53.986Z,16.31
2017-09-30T02:58:53.962Z,16.28
2017-09-30T02:59:53.954Z,16.36
2017-09-30T03:00:53.963Z,16.29
2017-09-30T03:01:53.655Z,16.31
2017-09-30T03:02:53.954Z,16.31
2017-09-30T03:03:53.665Z,16.26
2017-09-30T03:04:53.645Z,16.35
2017-09-30T03:05:53.955Z,16.21
2017-09-30T03:06:53.647Z,16.31
2017-09-30T03:07:53.646Z,16.23
2017-09-30T03:08:53.651Z,16.26
2017-09-30T03:09:53.951Z,16.29
2017-09-30T03:10:53.663Z,16.32
2017-09-30T03:11:53.656Z,16.32
2017-09-30T03:12:53.968Z,16.35
2017-09-30T03:13:53.651Z,16.38
2017-09-30T03:14:53.966Z,16.41
2017-09-30T03:15:53.341Z,16.36
2017-09-30T03:16:53.952Z,16.36
2017-09-30T03:17:53.957Z,16.42
2017-09-30T03:18:53.953Z,16.38
2017-09-30T03:19:53.648Z,16.38
2017-09-30T03:20:53.958Z,16.46
2017-09-30T03:21:53.648Z,16.35
2017-09-30T03:22:53.345Z,16.41
2017-09-30T03:23:53.959Z,16.42
2017-09-30T03:24:53.341Z,16.41
2017-09-30T03:25:53.655Z,16.41
2017-09-30T03:26:53.660Z,16.42
2017-09-30T03:27:53.659Z,16.33
2017-09-30T03:28:53.657Z,16.42
2017-09-30T03:29:53.651Z,16.43
2017-09-30T03:30:53.651Z,16.5
2017-09-30T03:31:53.957Z,16.49
2017-09-30T03:32:53.653Z,16.32
2017-09-30T03:33:53.647Z,16.36
2017-09-30T03:34:53.655Z,16.35
2017-09-30T03:35:53.655Z,16.38
2017-09-30T03:36:53.656Z,16.36
2017-09-30T03:37:53.654Z,16.33
2017-09-30T03:38:53.653Z,16.31
2017-09-30T03:39:53.960Z,16.33
2017-09-30T03:40:53.654Z,16.36
2017-09-30T03:41:53.961Z,16.38
2017-09-30T03:42:53.651Z,16.32
2017-09-30T03:43:53.966Z,16.33
2017-09-30T03:44:53.963Z,16.35
2017-09-30T03:45:53.966Z,16.31
2017-09-30T03:46:56.073Z,16.38
2017-09-30T03:47:53.965Z,16.29
2017-09-30T03:48:53.985Z,16.26
2017-09-30T03:49:53.972Z,16.29
2017-09-30T03:50:53.977Z,16.32
2017-09-30T03:51:53.968Z,16.29
2017-09-30T03:52:53.684Z,16.28
2017-09-30T03:53:53.968Z,16.28
2017-09-30T03:54:53.965Z,16.21
2017-09-30T03:55:53.965Z,16.24
2017-09-30T03:56:53.967Z,16.28
2017-09-30T03:57:53.967Z,16.29
2017-09-30T03:58:53.965Z,16.12
2017-09-30T03:59:53.657Z,16.16
2017-09-30T04:00:53.963Z,16.17
2017-09-30T04:01:53.349Z,16.15
2017-09-30T04:02:53.656Z,16.26
2017-09-30T04:03:53.964Z,16.31
2017-09-30T04:04:53.968Z,16.24
2017-09-30T04:05:53.653Z,16.31
2017-09-30T04:06:54.569Z,16.12
2017-09-30T04:07:53.754Z,16.15
2017-09-30T04:08:53.358Z,16.12
2017-09-30T04:09:53.660Z,16.09
2017-09-30T04:10:53.968Z,16.13
2017-09-30T04:11:53.653Z,16.04
2017-09-30T04:12:53.966Z,16.13
2017-09-30T04:13:53.970Z,16.17
2017-09-30T04:14:53.663Z,16.15
2017-09-30T04:15:53.692Z,16.16
2017-09-30T04:16:55.572Z,16.15
2017-09-30T04:17:53.971Z,16.05
2017-09-30T04:18:53.662Z,16.13
2017-09-30T04:19:53.660Z,16.21
2017-09-30T04:20:53.974Z,16.21
2017-09-30T04:21:53.660Z,16.21
2017-09-30T04:22:53.979Z,16.16
2017-09-30T04:23:53.661Z,16.16
2017-09-30T04:24:53.970Z,16.21
2017-09-30T04:25:53.972Z,16.2
2017-09-30T04:26:53.996Z,16.16
2017-09-30T04:27:53.405Z,16.1
2017-09-30T04:28:53.363Z,16.04
2017-09-30T04:29:53.666Z,16.1
2017-09-30T04:30:53.976Z,16.05
2017-09-30T04:31:53.360Z,16.08
2017-09-30T04:32:53.681Z,16.05
2017-09-30T04:33:53.695Z,15.97
2017-09-30T04:34:53.979Z,15.98
2017-09-30T04:35:53.977Z,15.97
2017-09-30T04:36:53.662Z,15.98
2017-09-30T04:37:53.350Z,16.04
2017-09-30T04:38:53.970Z,15.95
2017-09-30T04:39:53.661Z,15.97
2017-09-30T04:40:53.969Z,15.91
2017-09-30T04:41:53.668Z,15.94
2017-09-30T04:42:53.658Z,15.83
2017-09-30T04:43:53.680Z,15.84
2017-09-30T04:44:53.666Z,15.82
2017-09-30T04:45:53.348Z,15.84
2017-09-30T04:46:53.980Z,15.83
2017-09-30T04:47:53.964Z,15.79
2017-09-30T04:48:53.972Z,15.8
2017-09-30T04:49:53.968Z,15.86
2017-09-30T04:50:53.963Z,15.82
2017-09-30T04:51:53.958Z,15.8
2017-09-30T04:52:53.965Z,15.75
2017-09-30T04:53:53.962Z,15.84
2017-09-30T04:54:53.965Z,15.72
2017-09-30T04:55:53.961Z,15.82
2017-09-30T04:56:53.968Z,15.76
2017-09-30T04:57:53.650Z,15.73
2017-09-30T04:58:53.660Z,15.75
2017-09-30T04:59:53.960Z,15.72
2017-09-30T05:00:53.960Z,15.67
2017-09-30T05:01:53.353Z,15.68
2017-09-30T05:02:53.959Z,15.76
2017-09-30T05:03:53.965Z,15.8
2017-09-30T05:04:53.959Z,15.76
2017-09-30T05:05:53.967Z,15.72
2017-09-30T05:06:53.959Z,15.65
2017-09-30T05:07:53.650Z,15.72
2017-09-30T05:08:53.960Z,15.76
2017-09-30T05:09:53.652Z,15.76
2017-09-30T05:10:53.965Z,15.77
2017-09-30T05:11:53.652Z,15.83
2017-09-30T05:12:53.646Z,15.8
2017-09-30T05:13:53.651Z,15.83
2017-09-30T05:14:53.956Z,15.88
2017-09-30T05:15:53.657Z,15.84
2017-09-30T05:16:53.958Z,15.86
2017-09-30T05:17:56.117Z,15.79
2017-09-30T05:18:53.960Z,15.86
2017-09-30T05:19:53.963Z,15.86
2017-09-30T05:20:53.341Z,15.86
2017-09-30T05:21:53.350Z,15.84
2017-09-30T05:22:53.952Z,15.92
2017-09-30T05:23:53.958Z,15.86
2017-09-30T05:24:53.348Z,15.84
2017-09-30T05:25:53.961Z,15.92
2017-09-30T05:26:53.649Z,15.86
2017-09-30T05:27:53.955Z,15.91
2017-09-30T05:28:53.648Z,15.86
2017-09-30T05:29:53.953Z,15.82
2017-09-30T05:30:53.643Z,15.9
2017-09-30T05:31:53.655Z,15.92
2017-09-30T05:32:55.561Z,15.92
2017-09-30T05:33:53.958Z,15.94
2017-09-30T05:34:53.678Z,15.97
2017-09-30T05:35:53.679Z,16.04
2017-09-30T05:36:53.647Z,16.01
2017-09-30T05:37:53.647Z,16.05
2017-09-30T05:38:53.645Z,16.05
2017-09-30T05:39:53.644Z,16.04
2017-09-30T05:40:53.647Z,16.08
2017-09-30T05:41:53.960Z,16.04
2017-09-30T05:42:53.969Z,16.09
2017-09-30T05:43:53.956Z,16.01
2017-09-30T05:44:53.956Z,16.08
2017-09-30T05:45:53.956Z,16.05
2017-09-30T05:46:53.651Z,16.04
2017-09-30T05:47:55.307Z,16.04
2017-09-30T05:48:53.956Z,16.09
2017-09-30T05:49:53.645Z,16.08
2017-09-30T05:50:53.659Z,16.02
2017-09-30T05:51:53.957Z,16.04
2017-09-30T05:52:53.956Z,16.04
2017-09-30T05:53:53.648Z,16.02
2017-09-30T05:54:53.960Z,16.09
2017-09-30T05:55:53.646Z,16.12
2017-09-30T05:56:53.651Z,16.08
2017-09-30T05:57:53.958Z,16.1
2017-09-30T05:58:53.353Z,16.08
2017-09-30T05:59:53.654Z,16.15
2017-09-30T06:00:53.649Z,16.16
2017-09-30T06:01:53.961Z,16.15
2017-09-30T06:02:53.964Z,16.17
2017-09-30T06:03:53.960Z,16.2
2017-09-30T06:04:53.967Z,16.13
2017-09-30T06:05:53.961Z,16.12
2017-09-30T06:06:53.660Z,16.12
2017-09-30T06:07:53.654Z,16.16
2017-09-30T06:08:53.966Z,16.23
2017-09-30T06:09:53.994Z,16.28
2017-09-30T06:10:53.975Z,16.33
2017-09-30T06:11:53.960Z,16.31
2017-09-30T06:12:53.657Z,16.35
2017-09-30T06:13:53.351Z,16.35
2017-09-30T06:14:53.663Z,16.47
2017-09-30T06:15:53.350Z,16.49
2017-09-30T06:16:53.962Z,16.53
2017-09-30T06:17:53.983Z,16.53
2017-09-30T06:18:53.972Z,16.58
2017-09-30T06:19:53.997Z,16.61
2017-09-30T06:20:53.678Z,16.57
2017-09-30T06:21:53.979Z,16.64
2017-09-30T06:22:53.973Z,16.71
2017-09-30T06:23:53.365Z,16.69
2017-09-30T06:24:53.665Z,16.71
2017-09-30T06:25:53.976Z,16.75
2017-09-30T06:26:53.661Z,16.71
2017-09-30T06:27:53.974Z,16.81
2017-09-30T06:28:53.976Z,16.84
2017-09-30T06:29:53.973Z,16.74
2017-09-30T06:30:53.670Z,16.71
2017-09-30T06:31:53.674Z,16.75
2017-09-30T06:32:53.977Z,16.74
2017-09-30T06:33:53.672Z,16.69
2017-09-30T06:34:53.986Z,16.72
2017-09-30T06:35:53.976Z,16.72
2017-09-30T06:36:53.680Z,16.68
2017-09-30T06:37:53.669Z,16.69
2017-09-30T06:38:53.989Z,16.75
2017-09-30T06:39:53.990Z,16.87
2017-09-30T06:40:53.979Z,16.72
2017-09-30T06:41:53.984Z,16.72
2017-09-30T06:42:53.984Z,16.78
2017-09-30T06:43:53.669Z,16.89
2017-09-30T06:44:53.370Z,16.86
2017-09-30T06:45:53.671Z,16.84
2017-09-30T06:46:53.380Z,16.91
2017-09-30T06:47:53.999Z,16.91
2017-09-30T06:48:53.699Z,16.97
2017-09-30T06:49:53.995Z,16.96
2017-09-30T06:50:53.993Z,17.02
2017-09-30T06:51:53.676Z,17.05
2017-09-30T06:52:54.039Z,17.11
2017-09-30T06:53:53.986Z,17.14
2017-09-30T06:54:54.004Z,17.19
2017-09-30T06:55:53.996Z,17.16
2017-09-30T06:56:53.682Z,17.23
2017-09-30T06:57:53.992Z,17.3
2017-09-30T06:58:53.685Z,17.36
2017-09-30T06:59:54.000Z,17.34
2017-09-30T07:00:53.686Z,17.34
2017-09-30T07:01:53.998Z,17.36
2017-09-30T07:02:53.685Z,17.44
2017-09-30T07:03:54.000Z,17.39
2017-09-30T07:04:53.997Z,17.3
2017-09-30T07:05:53.684Z,17.33
2017-09-30T07:06:53.685Z,17.44
2017-09-30T07:07:54.001Z,17.45
2017-09-30T07:08:53.999Z,17.48
2017-09-30T07:09:53.692Z,17.51
2017-09-30T07:10:54.003Z,17.51
2017-09-30T07:11:54.003Z,17.49
2017-09-30T07:12:53.699Z,17.52
2017-09-30T07:13:53.693Z,17.56
2017-09-30T07:14:53.387Z,17.52
2017-09-30T07:15:53.695Z,17.59
2017-09-30T07:16:54.022Z,17.67
2017-09-30T07:17:53.699Z,17.63
2017-09-30T07:18:58.635Z,17.6
2017-09-30T07:19:54.010Z,17.71
2017-09-30T07:20:53.702Z,17.68
2017-09-30T07:21:54.013Z,17.72
2017-09-30T07:22:54.023Z,17.76
2017-09-30T07:23:53.713Z,17.82
2017-09-30T07:24:53.710Z,17.76
2017-09-30T07:25:54.025Z,17.94
2017-09-30T07:26:54.030Z,17.97
2017-09-30T07:27:53.711Z,17.92
2017-09-30T07:28:53.713Z,17.97
2017-09-30T07:29:54.030Z,18.05
2017-09-30T07:30:54.028Z,18.2
2017-09-30T07:31:53.721Z,18.13
2017-09-30T07:32:53.717Z,18.22
2017-09-30T07:33:53.783Z,18.22
2017-09-30T07:34:54.066Z,18.28
2017-09-30T07:35:53.416Z,18.31
2017-09-30T07:36:54.037Z,18.38
2017-09-30T07:37:54.043Z,18.6
2017-09-30T07:38:53.741Z,19.07
2017-09-30T07:39:53.436Z,19.58
2017-09-30T07:40:53.733Z,20.19
2017-09-30T07:41:53.736Z,20.48
2017-09-30T07:42:53.740Z,20.67
2017-09-30T07:43:54.050Z,20.97
2017-09-30T07:44:53.750Z,21.14
2017-09-30T07:45:54.081Z,21.21
2017-09-30T07:46:53.751Z,21.25
2017-09-30T07:47:53.765Z,21.21
2017-09-30T07:48:53.461Z,21.06
2017-09-30T07:49:54.080Z,20.99
2017-09-30T07:50:53.767Z,20.85
2017-09-30T07:51:53.769Z,20.85
2017-09-30T07:52:53.776Z,20.87
2017-09-30T07:53:53.778Z,20.87
2017-09-30T07:54:53.783Z,20.84
2017-09-30T07:55:53.782Z,20.81
2017-09-30T07:56:54.097Z,20.75
2017-09-30T07:57:53.790Z,20.52
2017-09-30T07:58:53.488Z,20.41
2017-09-30T07:59:53.798Z,20.32
2017-09-30T08:00:54.111Z,20.29
2017-09-30T08:01:53.804Z,20.26
2017-09-30T08:02:54.124Z,20.19
2017-09-30T08:03:54.119Z,20.19
2017-09-30T08:04:53.815Z,20.18
2017-09-30T08:05:53.525Z,20.13
2017-09-30T08:06:53.511Z,20.06
2017-09-30T08:07:53.514Z,20.14
2017-09-30T08:08:53.517Z,20.16
2017-09-30T08:09:54.138Z,20.19
2017-09-30T08:10:54.151Z,20.18
2017-09-30T08:11:53.837Z,20.16
2017-09-30T08:12:53.843Z,20.26
2017-09-30T08:13:53.860Z,20.24
2017-09-30T08:14:53.855Z,20.26
2017-09-30T08:15:53.846Z,20.28
2017-09-30T08:16:53.875Z,20.26
2017-09-30T08:17:54.161Z,20.19
2017-09-30T08:18:54.169Z,20.22
2017-09-30T08:19:53.859Z,20.18
2017-09-30T08:20:53.559Z,20.19
2017-09-30T08:21:53.564Z,20.19
2017-09-30T08:22:53.873Z,20.21
2017-09-30T08:23:54.207Z,20.13
2017-09-30T08:24:53.878Z,20.19
2017-09-30T08:25:54.188Z,20.16
2017-09-30T08:26:53.590Z,20.25
2017-09-30T08:27:53.895Z,20.21
2017-09-30T08:28:54.207Z,20.28
2017-09-30T08:29:53.909Z,20.34
2017-09-30T08:30:54.208Z,20.31
2017-09-30T08:31:53.908Z,20.37
2017-09-30T08:32:54.210Z,20.36
2017-09-30T08:33:53.911Z,20.37
2017-09-30T08:34:53.916Z,20.39
2017-09-30T08:35:53.937Z,20.32
2017-09-30T08:36:53.613Z,20.36
2017-09-30T08:37:54.245Z,20.34
2017-09-30T08:38:54.273Z,20.47
2017-09-30T08:39:54.235Z,20.37
2017-09-30T08:40:53.928Z,20.37
2017-09-30T08:41:53.954Z,20.41
2017-09-30T08:42:53.946Z,20.37
2017-09-30T08:43:53.949Z,20.4
2017-09-30T08:44:53.635Z,20.39
2017-09-30T08:45:53.659Z,20.24
2017-09-30T08:46:54.265Z,20.25
2017-09-30T08:47:53.949Z,20.18
2017-09-30T08:48:54.273Z,20.19
2017-09-30T08:49:54.278Z,20.22
2017-09-30T08:50:53.652Z,20.21
2017-09-30T08:51:53.970Z,20.29
2017-09-30T08:52:53.976Z,20.28
2017-09-30T08:53:53.971Z,20.34
2017-09-30T08:54:53.975Z,20.37
2017-09-30T08:55:53.980Z,20.62
2017-09-30T08:56:54.293Z,20.69
2017-09-30T08:57:54.297Z,20.93
2017-09-30T08:58:53.683Z,21.07
2017-09-30T08:59:53.992Z,21.24
2017-09-30T09:00:53.991Z,21.35
2017-09-30T09:01:53.690Z,21.5
2017-09-30T09:02:54.320Z,21.5
2017-09-30T09:03:54.008Z,21.58
2017-09-30T09:04:54.062Z,21.6
2017-09-30T09:05:53.701Z,21.61
2017-09-30T09:06:54.321Z,21.61
2017-09-30T09:07:53.711Z,21.61
2017-09-30T09:08:54.025Z,21.58
2017-09-30T09:09:54.030Z,21.64
2017-09-30T09:10:54.033Z,21.67
2017-09-30T09:11:54.337Z,21.7
2017-09-30T09:12:54.347Z,21.75
2017-09-30T09:13:54.359Z,21.88
2017-09-30T09:14:54.040Z,21.8
2017-09-30T09:15:54.356Z,21.95
2017-09-30T09:16:54.044Z,21.96
2017-09-30T09:17:54.366Z,21.95
2017-09-30T09:18:54.398Z,22.04
2017-09-30T09:19:55.742Z,22.14
2017-09-30T09:20:53.762Z,22.2
2017-09-30T09:21:54.383Z,22.28
2017-09-30T09:22:53.765Z,22.3
2017-09-30T09:23:54.073Z,22.44
2017-09-30T09:24:54.394Z,22.51
2017-09-30T09:25:54.079Z,22.66
2017-09-30T09:26:54.087Z,22.73
2017-09-30T09:27:54.088Z,22.84
2017-09-30T09:28:54.103Z,22.91
2017-09-30T09:29:54.102Z,22.99
2017-09-30T09:30:54.103Z,22.98
2017-09-30T09:31:54.123Z,22.94
2017-09-30T09:32:54.424Z,23.02
2017-09-30T09:33:54.463Z,22.93
2017-09-30T09:34:54.486Z,22.98
2017-09-30T09:35:54.127Z,23
2017-09-30T09:36:54.134Z,22.9
2017-09-30T09:37:54.140Z,22.91
2017-09-30T09:38:54.469Z,22.98
2017-09-30T09:39:54.154Z,22.94
2017-09-30T09:40:54.144Z,23.09
2017-09-30T09:41:54.489Z,23.08
2017-09-30T09:42:54.152Z,23.2
2017-09-30T09:43:54.158Z,23.2
2017-09-30T09:44:54.469Z,23.15
2017-09-30T09:45:53.856Z,23.08
2017-09-30T09:46:54.490Z,23.21
2017-09-30T09:47:54.513Z,23.1
2017-09-30T09:48:54.193Z,23.13
2017-09-30T09:49:57.985Z,23.05
2017-09-30T09:50:54.499Z,22.96
2017-09-30T09:51:54.514Z,22.85
2017-09-30T09:52:54.272Z,22.8
2017-09-30T09:53:53.948Z,22.83
2017-09-30T09:54:54.537Z,22.62
2017-09-30T09:55:54.221Z,22.62
2017-09-30T09:56:54.225Z,22.62
2017-09-30T09:57:54.528Z,22.48
2017-09-30T09:58:54.531Z,22.59
2017-09-30T09:59:54.225Z,22.59
2017-09-30T10:00:54.557Z,22.47
2017-09-30T10:01:54.234Z,22.51
2017-09-30T10:02:54.246Z,22.29
2017-09-30T10:03:53.933Z,22.33
2017-09-30T10:04:54.564Z,22.26
2017-09-30T10:05:54.560Z,22.3
2017-09-30T10:06:54.607Z,22.3
2017-09-30T10:07:54.275Z,22.38
2017-09-30T10:08:54.283Z,22.41
2017-09-30T10:09:53.958Z,22.55
2017-09-30T10:10:54.583Z,22.62
2017-09-30T10:11:54.303Z,22.78
2017-09-30T10:12:54.608Z,22.88
2017-09-30T10:13:54.319Z,23.06
2017-09-30T10:14:54.595Z,23.17
2017-09-30T10:15:54.292Z,23.17
2017-09-30T10:16:54.608Z,23.32
2017-09-30T10:17:54.605Z,23.39
2017-09-30T10:18:54.613Z,23.47
2017-09-30T10:19:54.622Z,23.44
2017-09-30T10:20:54.320Z,23.47
2017-09-30T10:21:54.017Z,23.5
2017-09-30T10:22:54.318Z,23.55
2017-09-30T10:23:54.637Z,23.48
2017-09-30T10:24:54.324Z,23.54
2017-09-30T10:25:54.653Z,23.58
2017-09-30T10:26:54.342Z,23.55
2017-09-30T10:27:54.668Z,23.59
2017-09-30T10:28:54.657Z,23.65
2017-09-30T10:29:54.658Z,23.63
2017-09-30T10:30:54.361Z,23.59
2017-09-30T10:31:54.694Z,23.62
2017-09-30T10:32:54.681Z,23.74
2017-09-30T10:33:54.675Z,23.68
2017-09-30T10:34:54.397Z,23.77
2017-09-30T10:35:54.802Z,23.8
2017-09-30T10:36:54.699Z,23.78
2017-09-30T10:37:54.383Z,23.88
2017-09-30T10:38:54.695Z,23.93
2017-09-30T10:39:54.404Z,23.92
2017-09-30T10:40:54.703Z,23.92
2017-09-30T10:41:54.715Z,23.84
2017-09-30T10:42:54.412Z,23.95
2017-09-30T10:43:54.412Z,23.95
2017-09-30T10:44:54.415Z,23.96
2017-09-30T10:45:54.418Z,24.03
2017-09-30T10:46:54.732Z,24.08
2017-09-30T10:47:54.743Z,24.08
2017-09-30T10:48:54.433Z,24.08
2017-09-30T10:49:54.449Z,24.13
2017-09-30T10:50:54.740Z,24.26
2017-09-30T10:51:54.763Z,24.38
2017-09-30T10:52:54.759Z,24.33
2017-09-30T10:53:54.456Z,24.36
2017-09-30T10:54:54.462Z,24.5
2017-09-30T10:55:54.782Z,24.53
2017-09-30T10:56:54.162Z,24.6
2017-09-30T10:57:54.167Z,24.68
2017-09-30T10:58:54.787Z,24.76
2017-09-30T10:59:54.791Z,24.86
2017-09-30T11:00:54.493Z,24.85
2017-09-30T11:01:54.501Z,24.95
2017-09-30T11:02:54.507Z,24.95
2017-09-30T11:03:54.511Z,25.01
2017-09-30T11:04:54.521Z,24.99
2017-09-30T11:05:54.512Z,25.06
2017-09-30T11:06:54.834Z,25.06
2017-09-30T11:07:54.827Z,25.07
2017-09-30T11:08:54.832Z,25.07
2017-09-30T11:09:54.568Z,25.08
2017-09-30T11:10:54.535Z,24.98
2017-09-30T11:11:54.237Z,24.88
2017-09-30T11:12:54.877Z,24.8
2017-09-30T11:13:54.878Z,24.81
2017-09-30T11:14:54.555Z,24.84
2017-09-30T11:15:54.888Z,24.81
2017-09-30T11:16:54.576Z,24.85
2017-09-30T11:17:54.580Z,24.93
2017-09-30T11:18:54.583Z,25.03
2017-09-30T11:19:54.285Z,25.04
2017-09-30T11:20:56.433Z,24.98
2017-09-30T11:21:54.621Z,25.04
2017-09-30T11:22:54.598Z,25.07
2017-09-30T11:23:54.606Z,25.03
2017-09-30T11:24:54.911Z,25.04
2017-09-30T11:25:54.619Z,24.95
2017-09-30T11:26:54.953Z,25.03
2017-09-30T11:27:54.932Z,24.93
2017-09-30T11:28:54.640Z,25.03
2017-09-30T11:29:54.644Z,25.06
2017-09-30T11:30:54.641Z,25.11
2017-09-30T11:31:54.958Z,25.13
2017-09-30T11:32:54.674Z,25.32
2017-09-30T11:33:54.663Z,25.36
2017-09-30T11:34:55.051Z,25.51
2017-09-30T11:35:54.668Z,25.54
2017-09-30T11:36:54.998Z,25.59
2017-09-30T11:37:54.693Z,25.6
2017-09-30T11:38:54.993Z,25.62
2017-09-30T11:39:54.685Z,25.66
2017-09-30T11:40:55.000Z,25.55
2017-09-30T11:41:54.700Z,25.54
2017-09-30T11:42:54.693Z,25.47
2017-09-30T11:43:54.704Z,25.46
2017-09-30T11:44:55.052Z,25.48
2017-09-30T11:45:55.027Z,25.47
2017-09-30T11:46:55.035Z,25.54
2017-09-30T11:47:54.726Z,25.59
2017-09-30T11:48:55.052Z,25.65
2017-09-30T11:49:54.736Z,25.68
2017-09-30T11:50:54.437Z,25.83
2017-09-30T11:51:54.743Z,25.91
2017-09-30T11:52:55.063Z,25.88
2017-09-30T11:53:54.458Z,26.06
2017-09-30T11:54:55.119Z,26.1
2017-09-30T11:55:54.775Z,26.05
2017-09-30T11:56:54.777Z,26.05
2017-09-30T11:57:55.084Z,25.88
2017-09-30T11:58:55.095Z,25.93
2017-09-30T11:59:55.098Z,25.93
2017-09-30T12:00:54.488Z,25.84
2017-09-30T12:01:54.798Z,25.77
2017-09-30T12:02:55.122Z,25.7
2017-09-30T12:03:54.502Z,25.69
2017-09-30T12:04:55.123Z,25.6
2017-09-30T12:05:54.826Z,25.7
2017-09-30T12:06:54.833Z,25.73
2017-09-30T12:07:54.862Z,25.7
2017-09-30T12:08:54.842Z,25.81
2017-09-30T12:09:55.151Z,25.83
2017-09-30T12:10:54.851Z,25.83
2017-09-30T12:11:55.161Z,25.84
2017-09-30T12:12:55.174Z,25.81
2017-09-30T12:13:55.175Z,25.81
2017-09-30T12:14:54.563Z,25.75
2017-09-30T12:15:55.185Z,25.87
2017-09-30T12:16:55.186Z,25.91
2017-09-30T12:17:54.881Z,25.9
2017-09-30T12:18:54.891Z,25.91
2017-09-30T12:19:55.239Z,25.95
2017-09-30T12:20:54.593Z,25.91
2017-09-30T12:21:58.658Z,25.98
2017-09-30T12:22:55.228Z,25.91
2017-09-30T12:23:55.244Z,25.91
2017-09-30T12:24:54.928Z,25.83
2017-09-30T12:25:55.244Z,25.88
2017-09-30T12:26:54.932Z,25.8
2017-09-30T12:27:54.936Z,25.77
2017-09-30T12:28:55.252Z,25.73
2017-09-30T12:29:55.274Z,25.68
2017-09-30T12:30:54.951Z,25.66
2017-09-30T12:31:55.290Z,25.63
2017-09-30T12:32:54.685Z,25.62
2017-09-30T12:33:55.293Z,25.68
2017-09-30T12:34:55.292Z,25.69
2017-09-30T12:35:55.290Z,25.66
2017-09-30T12:36:55.362Z,25.68
2017-09-30T12:37:54.999Z,25.68
2017-09-30T12:38:55.301Z,25.68
2017-09-30T12:39:55.022Z,25.69
2017-09-30T12:40:55.025Z,25.78
2017-09-30T12:41:54.703Z,25.69
2017-09-30T12:42:55.025Z,25.75
2017-09-30T12:57:19.827Z,26.05
2017-09-30T12:58:04.889Z,26.16
2017-09-30T12:59:04.881Z,26.16
2017-09-30T13:00:04.894Z,26.15
2017-09-30T13:01:04.574Z,26.09
2017-09-30T13:02:04.893Z,25.96
2017-09-30T13:03:04.282Z,25.8
2017-09-30T13:04:04.588Z,25.69
2017-09-30T13:05:04.595Z,25.62
2017-09-30T13:06:04.609Z,25.44
2017-09-30T13:07:04.604Z,25.4
2017-09-30T13:08:04.310Z,25.18